Weather reports worldwide

Advertisment
Luchon/SA, France (7724): temperature & dewpoint: 12.01.2018 07:00:00 - 18.01.2018 07:00:00 (CET)Luchon/SA, France (7724): wind speed & gusts: 12.01.2018 07:00:00 - 18.01.2018 07:00:00 (CET)Luchon/SA, France (7724): wind direction: 12.01.2018 07:00:00 - 18.01.2018 07:00:00 (CET)Luchon/SA, France (7724): precipitation: 12.01.2018 07:00:00 - 18.01.2018 07:00:00 (CET)
Date & Time tt [°C] td [°C] ff [km/h] ff [kn] fx [km/h] fx [kn] dd rr [mm]
18.01.2018 07:00:00 - - - - - - - -
18.01.2018 06:00:00 -2,1 -2,8 0 0 5 3 N 0,0
18.01.2018 05:00:00 -1,8 -2,5 2 1 5 3 S 0,0
18.01.2018 04:00:00 -1,5 -2,3 2 1 5 3 SSW 0,0
18.01.2018 03:00:00 -1,1 -1,9 4 2 8 4 S 0,0
18.01.2018 02:00:00 -0,7 -2,0 4 2 11 6 SSW 0,0
18.01.2018 01:00:00 0,5 -1,3 8 4 22 12 N -
18.01.2018 00:00:00 0,2 -1,4 4 2 11 6 SE 0,0
17.01.2018 23:00:00 0,4 -1,4 0 0 5 3 N 0,0
17.01.2018 22:00:00 1,4 -0,7 2 1 9 5 E 0,0
17.01.2018 21:00:00 2,6 0,0 4 2 5 3 SW 0,0
17.01.2018 20:00:00 3,3 0,3 0 0 11 6 N 0,0
17.01.2018 19:00:00 4,1 0,1 5 3 13 7 SSW -
17.01.2018 18:00:00 5,5 0,1 4 2 13 7 SSW 0,0
17.01.2018 17:00:00 6,6 0,3 11 6 22 12 SSW 0,0
17.01.2018 16:00:00 9,9 0,2 11 6 22 12 NNE 0,0
17.01.2018 15:00:00 10,1 1,7 8 4 22 12 SE 0,0
17.01.2018 14:00:00 7,6 2,9 4 2 44 24 N 0,0
17.01.2018 13:00:00 8,5 2,9 22 12 41 22 N -
17.01.2018 12:00:00 8,3 2,5 26 14 42 23 N 0,0
17.01.2018 11:00:00 9,6 2,2 5 3 16 9 S 0,0
17.01.2018 10:00:00 7,0 3,6 5 3 15 8 SSE 0,0
17.01.2018 09:00:00 5,4 3,4 9 5 15 8 NNW 0,0
17.01.2018 08:00:00 5,5 3,8 2 1 8 4 S 0,0
17.01.2018 07:00:00 5,2 4,0 9 5 13 7 S -
17.01.2018 06:00:00 4,7 3,4 4 2 9 5 E 0,0
17.01.2018 05:00:00 4,9 3,4 5 3 13 7 E 0,0
17.01.2018 04:00:00 4,5 3,3 4 2 9 5 N 0,0
17.01.2018 03:00:00 4,7 3,4 0 0 5 3 N 0,0
17.01.2018 02:00:00 4,9 3,4 2 1 11 6 ESE 0,0
17.01.2018 01:00:00 5,3 3,8 5 3 9 5 SSE -
17.01.2018 00:00:00 5,8 3,6 4 2 9 5 N 0,0
16.01.2018 23:00:00 6,2 4,2 4 2 15 8 E 0,0
16.01.2018 22:00:00 5,6 3,8 2 1 11 6 E 0,0
16.01.2018 21:00:00 5,6 3,9 5 3 13 7 S 0,0
16.01.2018 20:00:00 6,1 3,8 0 0 11 6 N 0,0
16.01.2018 19:00:00 7,8 4,9 4 2 15 8 NNE -
16.01.2018 18:00:00 10,0 5,2 4 2 16 9 SSE 0,0
16.01.2018 17:00:00 11,6 6,7 2 1 8 4 N 0,0
16.01.2018 16:00:00 12,0 6,7 2 1 8 4 W 0,0
16.01.2018 15:00:00 11,9 6,0 0 0 9 5 N 0,0
16.01.2018 14:00:00 11,2 4,9 4 2 9 5 ESE 0,0
16.01.2018 13:00:00 10,0 3,5 0 0 11 6 N -
16.01.2018 12:00:00 8,5 3,7 2 1 8 4 NE 0,0
16.01.2018 11:00:00 4,9 3,1 4 2 11 6 S 0,0
16.01.2018 10:00:00 2,1 1,7 4 2 9 5 N 0,0
16.01.2018 09:00:00 0,4 0,0 4 2 9 5 NE 0,0
16.01.2018 08:00:00 -0,4 -1,0 4 2 9 5 SSW 0,0
16.01.2018 07:00:00 -0,6 -1,2 2 1 11 6 SSW -
16.01.2018 06:00:00 -0,3 -0,9 4 2 9 5 NE 0,0
16.01.2018 05:00:00 0,1 -0,8 0 0 9 5 N 0,0
16.01.2018 04:00:00 0,8 -0,4 2 1 8 4 WSW 0,0
16.01.2018 03:00:00 1,0 -0,2 4 2 9 5 NE 0,0
16.01.2018 02:00:00 2,3 0,4 4 2 11 6 ENE 0,0
16.01.2018 01:00:00 3,1 0,7 4 2 9 5 NNW -
16.01.2018 00:00:00 3,9 1,3 2 1 9 5 W 0,0
15.01.2018 23:00:00 4,7 1,7 2 1 9 5 N 0,0
15.01.2018 22:00:00 5,6 1,9 4 2 9 5 N 0,0
15.01.2018 21:00:00 5,9 1,2 4 2 15 8 WSW 0,0
15.01.2018 20:00:00 5,9 1,6 5 3 18 10 S 0,0
15.01.2018 19:00:00 6,2 1,7 9 5 15 8 S -
15.01.2018 18:00:00 6,7 1,8 5 3 13 7 S 0,0
15.01.2018 17:00:00 7,9 1,5 8 4 21 11 ESE 0,0
15.01.2018 16:00:00 8,4 0,4 8 4 21 11 WSW 0,0
15.01.2018 15:00:00 8,2 1,1 11 6 26 14 NNE 0,0
15.01.2018 14:00:00 8,5 1,2 8 4 15 8 N 0,0
15.01.2018 13:00:00 8,4 1,1 2 1 9 5 ESE -
15.01.2018 12:00:00 5,0 2,0 4 2 9 5 ESE 0,0
15.01.2018 11:00:00 2,0 1,7 4 2 5 3 SSE 0,0
15.01.2018 10:00:00 -0,8 -1,1 4 2 8 4 S 0,0
15.01.2018 09:00:00 -1,1 -1,4 2 1 5 3 SSE 0,0
15.01.2018 08:00:00 -1,1 -1,5 4 2 8 4 SSE 0,0
15.01.2018 07:00:00 -0,3 -0,9 0 0 15 8 N -
15.01.2018 06:00:00 0,4 0,0 4 2 11 6 S 0,0
15.01.2018 05:00:00 1,8 1,4 4 2 9 5 N 0,0
15.01.2018 04:00:00 2,5 1,9 2 1 13 7 ENE 0,0
15.01.2018 03:00:00 3,4 3,0 2 1 5 3 W 0,0
15.01.2018 02:00:00 3,5 3,1 4 2 8 4 S 0,0
15.01.2018 01:00:00 3,4 3,0 4 2 8 4 ESE -
15.01.2018 00:00:00 3,6 3,2 0 0 8 4 N 0,0
14.01.2018 23:00:00 3,5 3,1 2 1 8 4 N 0,0
14.01.2018 22:00:00 3,7 3,0 4 2 8 4 N 0,0
14.01.2018 21:00:00 4,0 3,1 0 0 5 3 N 0,0
14.01.2018 20:00:00 4,0 3,1 4 2 9 5 S 0,0
14.01.2018 19:00:00 4,1 3,1 4 2 11 6 ENE -
14.01.2018 18:00:00 4,4 2,9 4 2 8 4 NNW 0,0
14.01.2018 17:00:00 5,1 2,4 0 0 9 5 N 0,0
14.01.2018 16:00:00 5,1 2,4 0 0 11 6 N 0,0
14.01.2018 15:00:00 4,9 2,8 8 4 11 6 N 0,0
14.01.2018 14:00:00 4,7 2,7 0 0 9 5 N 0,0
14.01.2018 13:00:00 4,1 2,6 4 2 5 3 NE -
14.01.2018 12:00:00 3,7 2,5 2 1 5 3 N 0,2
14.01.2018 11:00:00 3,2 2,5 0 0 4 2 N 0,2
14.01.2018 10:00:00 2,6 2,2 0 0 4 2 N 0,0
14.01.2018 09:00:00 1,8 1,2 0 0 4 2 N 0,0
14.01.2018 08:00:00 2,0 1,3 0 0 8 4 N 0,0
14.01.2018 07:00:00 2,0 1,3 0 0 4 2 N -
14.01.2018 06:00:00 2,2 1,3 2 1 4 2 SSW 0,0
14.01.2018 05:00:00 2,3 1,4 4 2 8 4 SSE 0,2
14.01.2018 04:00:00 2,7 1,2 4 2 15 8 SSE 0,2
14.01.2018 03:00:00 3,6 1,0 13 7 18 10 SSW 0,0
14.01.2018 02:00:00 1,6 -0,3 4 2 8 4 W 0,0
14.01.2018 01:00:00 1,4 -0,4 2 1 5 3 WSW -
14.01.2018 00:00:00 1,8 -0,6 4 2 11 6 W 0,0
13.01.2018 23:00:00 1,6 -0,5 0 0 13 7 N 0,0
13.01.2018 22:00:00 1,4 -0,5 4 2 9 5 E 0,0
13.01.2018 21:00:00 1,9 0,0 4 2 8 4 WSW 0,0
13.01.2018 20:00:00 2,8 0,2 2 1 8 4 SW 0,0
13.01.2018 19:00:00 3,8 0,8 4 2 9 5 WSW -
13.01.2018 18:00:00 5,2 0,9 0 0 5 3 N 0,0
13.01.2018 17:00:00 6,8 1,5 4 2 15 8 SSE 0,0
13.01.2018 16:00:00 7,8 0,0 4 2 9 5 SSW 0,0
13.01.2018 15:00:00 8,9 1,3 4 2 8 4 N 0,0
13.01.2018 14:00:00 6,9 -0,1 2 1 9 5 NW 0,0
13.01.2018 13:00:00 6,4 -1,0 2 1 8 4 NNE -
13.01.2018 12:00:00 4,9 -0,7 4 2 8 4 NNE 0,0
13.01.2018 11:00:00 1,0 -1,4 4 2 8 4 SSW 0,0
13.01.2018 10:00:00 -0,9 -2,3 4 2 8 4 S 0,0
13.01.2018 09:00:00 -1,7 -2,8 2 1 8 4 W 0,0
13.01.2018 08:00:00 -2,1 -3,1 0 0 8 4 N 0,0
13.01.2018 07:00:00 -2,5 -3,3 2 1 5 3 SSW -
13.01.2018 06:00:00 -2,7 -3,5 2 1 9 5 SSE 0,0
13.01.2018 05:00:00 -3,2 -4,0 0 0 5 3 N 0,0
13.01.2018 04:00:00 -3,3 -4,3 2 1 8 4 WSW 0,0
13.01.2018 03:00:00 -2,7 -3,7 0 0 9 5 N 0,0
13.01.2018 02:00:00 -2,4 -3,7 4 2 8 4 NNW 0,0
13.01.2018 01:00:00 -1,7 -3,1 4 2 9 5 NW -
13.01.2018 00:00:00 -1,1 -2,8 4 2 15 8 N 0,0
12.01.2018 23:00:00 -1,0 -2,6 4 2 9 5 SE 0,0
12.01.2018 22:00:00 -0,4 -2,5 4 2 15 8 N 0,0
12.01.2018 21:00:00 0,2 -1,9 0 0 16 9 N 0,0
12.01.2018 20:00:00 0,5 -1,4 4 2 15 8 ESE 0,0
12.01.2018 19:00:00 1,2 -1,2 5 3 16 9 SE -
12.01.2018 18:00:00 3,2 -1,0 8 4 16 9 S 0,0
12.01.2018 17:00:00 4,9 -0,5 5 3 21 11 SW 0,0
12.01.2018 16:00:00 6,4 0,5 13 7 18 10 S 0,0
12.01.2018 15:00:00 7,6 0,3 8 4 15 8 S 0,0
12.01.2018 14:00:00 8,1 -0,7 4 2 9 5 SSE 0,0
12.01.2018 13:00:00 6,3 -0,9 2 1 9 5 SSW -
12.01.2018 12:00:00 5,6 0,8 2 1 8 4 E 0,0
12.01.2018 11:00:00 2,1 0,2 4 2 11 6 SE 0,0
12.01.2018 10:00:00 -0,7 -1,8 0 0 13 7 N 0,0
12.01.2018 09:00:00 -1,1 -2,2 2 1 15 8 S 0,0
12.01.2018 08:00:00 -1,7 -2,5 2 1 8 4 WNW 0,0
12.01.2018 07:00:00 -1,0 -1,8 4 2 13 7 S -

tt = temperature
td = dewpoint
ff = wind speed
fx = gusts
dd = wind direction
rr = precipitation

Next stations